M I D A S
Marine Information and Data Acquisition System
Tripno 1294 of the Zeeleeuw from 2007-06-18 08:15:25 to 2007-06-18 15:08:36
Back to CruiseResearch ActivitiesStationsMapUnderway DataData graphs

EquipmentUnitsComment
TimeDGPSUTC
LatitudeDGPSDM.mWGS84
LongitudeDGPSDM.mWGS84
HeadingGyrodeg 
SOGDGPSknotsSpeed over ground
COGDGPSdegCourse over ground
DepthEcho soundermeters200 kHz
Missing or incorrect values are displayed as -999
Navigation data collected by the RV Zeeleeuw from 2007-06-18 08:18:21 to 2007-06-18 15:20:12
Time Latitude Longitude Heading SOG COG Depth
2007-06-18 08:19:26 51°13.614 2°56.038 115 3.3 294 -999
2007-06-18 08:20:26 51°13.642 2°55.944 117.7 4.4 297 -999
2007-06-18 08:21:26 51°13.675 2°55.838 107.9 4.1 291 -999
2007-06-18 08:22:26 51°13.684 2°55.77 82.3 1.7 273 9.9
2007-06-18 08:23:26 51°13.684 2°55.743 63.3 0.2 304 9.9
2007-06-18 08:24:26 51°13.712 2°55.751 9 3.6 353 11.5
2007-06-18 08:25:26 51°13.775 2°55.686 328.8 5.1 325 10
2007-06-18 08:26:26 51°13.871 2°55.607 337.4 7.5 335 9.9
2007-06-18 08:27:26 51°13.992 2°55.517 338.4 8.5 335 10
2007-06-18 08:28:26 51°14.122 2°55.416 337.2 8.8 334 9.8
2007-06-18 08:29:26 51°14.242 2°55.29 323.7 8.6 319 10
2007-06-18 08:30:26 51°14.348 2°55.099 311 11.3 309 9.9
2007-06-18 08:31:26 51°14.416 2°54.786 280.9 13.5 275 9.7
2007-06-18 08:32:26 51°14.374 2°54.432 252.3 13.5 248 8.2
2007-06-18 08:33:26 51°14.271 2°54.112 242.4 13.7 242 7.7
2007-06-18 08:34:26 51°14.161 2°53.793 243 13.8 242 7.7
2007-06-18 08:35:26 51°14.055 2°53.466 244.3 14 243 8
2007-06-18 08:36:26 51°13.952 2°53.131 241.8 14.2 240 8.4
2007-06-18 08:37:26 51°13.831 2°52.808 242.6 14.2 241 8.6
2007-06-18 08:38:26 51°13.712 2°52.483 243.1 14.2 241 8.7
2007-06-18 08:39:26 51°13.598 2°52.151 242.2 14.3 240 9
2007-06-18 08:40:26 51°13.485 2°51.818 242.7 14.3 240 9.1
2007-06-18 08:41:26 51°13.37 2°51.488 244.2 14.2 241 9.2
2007-06-18 08:42:26 51°13.253 2°51.159 242.3 14.3 240 9.3
2007-06-18 08:43:26 51°13.137 2°50.827 243.8 14.3 240 9.5
2007-06-18 08:44:26 51°13.022 2°50.494 243.8 14.4 242 9.6
2007-06-18 08:45:26 51°12.906 2°50.161 242 14.4 240 9.8
2007-06-18 08:46:26 51°12.788 2°49.829 243.1 14.4 240 9.9
2007-06-18 08:47:26 51°12.672 2°49.498 242.9 14.3 240 10
2007-06-18 08:48:26 51°12.558 2°49.167 243.7 14.2 241 10.1
2007-06-18 08:49:26 51°12.442 2°48.841 243.1 14.1 241 10.1
2007-06-18 08:50:26 51°12.327 2°48.514 243.2 14.1 241 10.2
2007-06-18 08:51:26 51°12.213 2°48.186 243.4 14.1 242 10.2
2007-06-18 08:52:26 51°12.099 2°47.859 243.5 14.1 240 10.2
2007-06-18 08:53:26 51°11.984 2°47.534 243.4 14.1 241 10.2
2007-06-18 08:54:26 51°11.872 2°47.208 243.4 14 241 10
2007-06-18 08:55:26 51°11.759 2°46.886 242.9 14 241 9.9
2007-06-18 08:56:26 51°11.659 2°46.552 252.2 14 251 9.8
2007-06-18 08:57:26 51°11.583 2°46.201 252.8 14.1 251 10.3
2007-06-18 08:58:26 51°11.505 2°45.849 253.1 14.1 250 10.3
2007-06-18 08:59:26 51°11.434 2°45.493 255.2 14.1 252 10.5
2007-06-18 09:00:26 51°11.363 2°45.138 255.7 14.1 253 10.5
2007-06-18 09:01:26 51°11.272 2°44.795 245.6 14.1 244 10.5
2007-06-18 09:02:26 51°11.175 2°44.456 247.5 14.1 245 10.3
2007-06-18 09:03:26 51°11.078 2°44.117 248 14 245 10.2
2007-06-18 09:04:26 51°10.982 2°43.777 248.1 14 246 10
2007-06-18 09:05:26 51°10.887 2°43.437 248.8 14 246 9.8
2007-06-18 09:06:26 51°10.791 2°43.098 248.2 14 245 9.6
2007-06-18 09:07:26 51°10.695 2°42.759 247.7 14 246 9.5
2007-06-18 09:08:26 51°10.6 2°42.42 248.9 14 246 9.4
2007-06-18 09:09:26 51°10.506 2°42.082 249.5 14 247 9.3
2007-06-18 09:10:26 51°10.41 2°41.746 247.8 13.9 246 9.1
2007-06-18 09:11:26 51°10.318 2°41.408 247.6 13.9 246 9.2
2007-06-18 09:12:26 51°10.224 2°41.071 248.2 13.9 246 9.1
2007-06-18 09:13:26 51°10.129 2°40.735 249.5 13.9 248 9.2
2007-06-18 09:14:26 51°10.036 2°40.398 247.2 13.9 244 9.1
2007-06-18 09:15:26 51°9.945 2°40.06 248.9 13.9 245 9.1
2007-06-18 09:16:26 51°9.849 2°39.726 248.1 13.8 249 9.1
2007-06-18 09:17:26 51°9.782 2°39.376 256.1 13.8 252 9.3
2007-06-18 09:18:26 51°9.711 2°39.026 254.9 13.9 252 9.5
2007-06-18 09:19:26 51°9.642 2°38.676 255.1 13.8 252 9.7
2007-06-18 09:20:26 51°9.571 2°38.326 255.6 13.9 252 9.9
2007-06-18 09:21:26 51°9.501 2°37.975 255.3 13.9 252 10.2
2007-06-18 09:22:26 51°9.421 2°37.629 252.3 14 250 10.5
2007-06-18 09:23:26 51°9.34 2°37.283 252.3 14 249 10.9
2007-06-18 09:24:26 51°9.259 2°36.934 252.5 14 250 11.4
2007-06-18 09:25:26 51°9.178 2°36.585 252.5 14.1 250 11.9
2007-06-18 09:26:26 51°9.09 2°36.237 249 14.2 247 12.6
2007-06-18 09:27:26 51°8.997 2°35.891 249 14.3 247 13.1
2007-06-18 09:28:26 51°8.906 2°35.54 250.3 14.3 248 13.6
2007-06-18 09:29:26 51°8.819 2°35.185 254 14.4 251 14.3
2007-06-18 09:30:26 51°8.739 2°34.822 254.5 14.5 252 15.2
2007-06-18 09:31:26 51°8.661 2°34.458 254 14.6 251 15.7
2007-06-18 09:32:26 51°8.583 2°34.094 253.9 14.5 251 15.4
2007-06-18 09:33:26 51°8.505 2°33.734 254 14.4 251 15.7
2007-06-18 09:34:26 51°8.417 2°33.381 251.5 14.3 248 15.1
2007-06-18 09:35:26 51°8.328 2°33.029 251.1 14.3 248 15
2007-06-18 09:36:26 51°8.238 2°32.679 250.9 14.4 248 16.2
2007-06-18 09:37:26 51°8.146 2°32.33 248.4 14.3 243 15.2
2007-06-18 09:38:26 51°8.027 2°32 241.4 14.4 239 17.2
2007-06-18 09:39:26 51°7.905 2°31.672 241.9 14.4 240 17.6
2007-06-18 09:40:26 51°7.785 2°31.344 241.3 14.4 239 18.3
2007-06-18 09:41:26 51°7.663 2°31.015 241.6 14.4 239 17.5
2007-06-18 09:42:26 51°7.506 2°30.733 219.9 14.3 219 18.2
2007-06-18 09:43:26 51°7.299 2°30.557 200.4 14.1 201 14
2007-06-18 09:44:26 51°7.082 2°30.419 201 14 202 9.9
2007-06-18 09:45:26 51°6.862 2°30.315 187 13.5 181 8.8
2007-06-18 09:46:26 51°6.652 2°30.396 154.1 12.9 158 7.2
2007-06-18 09:47:26 51°6.443 2°30.466 170 12.8 172 6.4
2007-06-18 09:48:26 51°6.229 2°30.483 186.9 13.9 194 7.9
2007-06-18 09:49:26 51°6.039 2°30.272 227.9 14 224 11.3
2007-06-18 09:50:26 51°5.87 2°30.023 231.9 13.8 232 13.2
2007-06-18 09:51:26 51°5.737 2°29.719 238.1 14 235 13.8
2007-06-18 09:52:26 51°5.577 2°29.446 227.2 14.1 223 11.9
2007-06-18 09:53:26 51°5.409 2°29.184 232.4 14.4 231 11
2007-06-18 09:54:26 51°5.247 2°28.905 226.9 14.4 226 11.8
2007-06-18 09:55:26 51°5.083 2°28.622 228.6 14.4 229 14.6
2007-06-18 09:56:26 51°4.984 2°28.278 257.6 14.5 255 15.8
2007-06-18 09:57:26 51°4.921 2°27.908 259.2 14.4 257 17.3
2007-06-18 09:58:26 51°4.868 2°27.538 260.6 14.4 257 16.6
2007-06-18 09:59:26 51°4.815 2°27.17 260.7 14.1 257 17.5
2007-06-18 10:00:26 51°4.763 2°26.811 259.6 13.9 257 19.5
2007-06-18 10:01:26 51°4.712 2°26.452 259.8 14 257 17.7
2007-06-18 10:02:26 51°4.66 2°26.093 259.2 14 257 17.5
2007-06-18 10:03:26 51°4.607 2°25.731 259.4 14.1 256 17.8
2007-06-18 10:04:26 51°4.554 2°25.367 259.7 14.3 258 17.1
2007-06-18 10:05:26 51°4.503 2°24.996 258.8 14.5 257 17.4
2007-06-18 10:06:26 51°4.45 2°24.623 259.1 14.5 258 19.7
2007-06-18 10:07:26 51°4.404 2°24.245 262 14.6 262 22
2007-06-18 10:08:26 51°4.386 2°23.86 267.2 14.5 265 20.3
2007-06-18 10:09:26 51°4.365 2°23.482 267.3 14.2 265 19.6
2007-06-18 10:10:26 51°4.344 2°23.104 266.2 14.4 265 18.4
2007-06-18 10:11:26 51°4.318 2°22.73 263.4 14.2 262 18.2
2007-06-18 10:12:26 51°4.284 2°22.355 261.3 14.5 261 17.2
2007-06-18 10:13:26 51°4.248 2°21.974 262.3 14.6 262 16.8
2007-06-18 10:14:26 51°4.213 2°21.591 262.3 14.7 262 17.7
2007-06-18 10:15:26 51°4.177 2°21.206 262.4 14.8 261 16.9
2007-06-18 10:16:26 51°4.141 2°20.82 262 14.7 262 16.5
2007-06-18 10:17:26 51°4.104 2°20.437 262.3 14.5 261 16.4
2007-06-18 10:18:26 51°4.068 2°20.058 262.7 14.5 262 17.5
2007-06-18 10:19:26 51°4.035 2°19.679 263.5 14.5 262 19
2007-06-18 10:20:26 51°4.003 2°19.3 263.3 14.5 262 18.9
2007-06-18 10:21:26 51°3.983 2°18.918 266.6 14.5 266 18.8
2007-06-18 10:22:26 51°3.963 2°18.536 266.5 14.5 265 18.6
2007-06-18 10:23:26 51°3.944 2°18.156 266.4 14.4 265 17.9
2007-06-18 10:24:26 51°3.923 2°17.778 266.3 14.4 265 17.2
2007-06-18 10:25:26 51°3.9 2°17.4 265.9 14.3 264 16.5
2007-06-18 10:26:26 51°3.878 2°17.024 266.3 14.3 265 16.5
2007-06-18 10:27:26 51°3.855 2°16.648 266.5 14.3 264 16.8
2007-06-18 10:28:26 51°3.832 2°16.273 266.7 14.2 264 17.8
2007-06-18 10:29:26 51°3.81 2°15.899 266.3 14.2 264 18.5
2007-06-18 10:30:26 51°3.784 2°15.527 266.7 14.1 264 19.5
2007-06-18 10:31:26 51°3.761 2°15.155 266.3 14.1 264 20.5
2007-06-18 10:32:26 51°3.735 2°14.784 266.3 14.1 264 21.1
2007-06-18 10:33:26 51°3.711 2°14.415 266.4 14 264 19.9
2007-06-18 10:34:26 51°3.686 2°14.045 265.8 14.1 264 20.7
2007-06-18 10:35:26 51°3.66 2°13.674 266 14.2 264 21.6
2007-06-18 10:36:26 51°3.617 2°13.306 259.4 14.2 258 21.5
2007-06-18 10:37:26 51°3.572 2°12.939 262.1 14.1 260 19
2007-06-18 10:38:26 51°3.531 2°12.572 262 14 260 21
2007-06-18 10:39:26 51°3.492 2°12.208 262 13.9 261 22
2007-06-18 10:40:26 51°3.454 2°11.844 263 14 262 22.4
2007-06-18 10:41:26 51°3.426 2°11.475 264.9 14.2 263 20.6
2007-06-18 10:42:26 51°3.399 2°11.104 265.5 14.1 263 22.8
2007-06-18 10:43:26 51°3.379 2°10.732 267.7 14.1 265 22.9
2007-06-18 10:44:26 51°3.373 2°10.36 280.6 14 281 22.2
2007-06-18 10:45:26 51°3.498 2°10.068 325.9 13.2 322 19.4
2007-06-18 10:46:26 51°3.693 2°9.925 349 12.9 341 18
2007-06-18 10:47:26 51°3.894 2°9.805 347.3 12.9 339 20.5
2007-06-18 10:48:26 51°4.094 2°9.684 347.8 12.8 340 20.6
2007-06-18 10:49:26 51°4.294 2°9.563 347.6 12.9 338 20.7
2007-06-18 10:50:26 51°4.49 2°9.448 349.1 12.3 341 12.6
2007-06-18 10:51:26 51°4.681 2°9.329 345.7 12.5 337 13.4
2007-06-18 10:52:26 51°4.868 2°9.18 339.5 12.7 330 17.3
2007-06-18 10:53:26 51°5.053 2°9.013 339.8 12.8 331 19.1
2007-06-18 10:54:27 51°5.242 2°8.849 340.4 12.8 332 21.7
2007-06-18 10:55:27 51°5.432 2°8.689 339.5 13.1 332 27.2
2007-06-18 10:56:27 51°5.623 2°8.53 340.2 12.9 332 23.7
2007-06-18 10:57:27 51°5.806 2°8.372 339.5 12.2 331 11.5
2007-06-18 10:58:27 51°5.985 2°8.216 339.5 12.3 332 12.9
2007-06-18 10:59:27 51°6.164 2°8.057 340 12.4 329 14.6
2007-06-18 11:00:27 51°6.342 2°7.891 339.7 12.4 330 19.6
2007-06-18 11:01:27 51°6.531 2°7.792 5.7 11.9 357 27.6
2007-06-18 11:02:27 51°6.726 2°7.808 18.1 11.8 10 28.6
2007-06-18 11:03:27 51°6.919 2°7.865 18.7 11.9 10 30.3
2007-06-18 11:04:27 51°7.105 2°7.956 34.7 11.6 30 30.7
2007-06-18 11:05:27 51°7.238 2°8.169 58.2 11.5 58 31
2007-06-18 11:06:27 51°7.315 2°8.448 66 11.5 63 31.3
2007-06-18 11:07:27 51°7.41 2°8.713 62.3 11.5 59 31
2007-06-18 11:08:27 51°7.507 2°8.976 61.8 11.7 59 29.5
2007-06-18 11:09:27 51°7.607 2°9.237 61.4 11.5 58 30.7
2007-06-18 11:10:27 51°7.699 2°9.507 63.8 11.7 62 28.4
2007-06-18 11:11:27 51°7.791 2°9.778 64.3 11.6 63 29.1
2007-06-18 11:12:27 51°7.882 2°10.051 63.7 11.7 62 31.4
2007-06-18 11:13:27 51°7.976 2°10.322 63.5 11.7 61 32.5
2007-06-18 11:14:27 51°8.069 2°10.593 63.9 11.7 61 32.9
2007-06-18 11:15:27 51°8.163 2°10.862 63.6 11.8 61 32.2
2007-06-18 11:16:27 51°8.258 2°11.134 63.3 11.8 62 33.3
2007-06-18 11:17:27 51°8.352 2°11.406 63.3 11.8 61 32.8
2007-06-18 11:18:27 51°8.449 2°11.676 63.4 11.7 60 31.9
2007-06-18 11:19:27 51°8.544 2°11.948 63.2 11.8 61 32.5
2007-06-18 11:20:27 51°8.643 2°12.219 63.7 11.8 60 34.2
2007-06-18 11:21:27 51°8.737 2°12.495 65.6 11.9 64 32.6
2007-06-18 11:22:27 51°8.826 2°12.775 66.7 11.9 63 32.1
2007-06-18 11:23:27 51°8.915 2°13.058 66.6 11.9 64 31.3
2007-06-18 11:24:26 51°9.004 2°13.333 66.7 11.9 63 29.7
2007-06-18 11:25:27 51°9.097 2°13.618 66.7 12 62 32.9
2007-06-18 11:26:27 51°9.189 2°13.901 68.2 12 66 33.5
2007-06-18 11:27:27 51°9.258 2°14.116 55.5 5.7 39 31
2007-06-18 11:28:27 51°9.329 2°14.085 325.5 5.2 305 30.9
2007-06-18 11:29:27 51°9.311 2°13.937 241.6 7.2 238 32
2007-06-18 11:30:27 51°9.228 2°13.739 240 9.3 237 31.8
2007-06-18 11:31:27 51°9.167 2°13.641 205.6 4.6 211 31.8
2007-06-18 11:32:27 51°9.106 2°13.477 272.1 8.9 274 31.4
2007-06-18 11:33:27 51°9.213 2°13.327 359 9.2 1 30.9
2007-06-18 11:34:27 51°9.343 2°13.48 55.8 11.2 61 31.1
2007-06-18 11:35:27 51°9.376 2°13.797 82.4 12.5 78 31.3
2007-06-18 11:36:27 51°9.426 2°14.119 79.2 12.6 76 32.4
2007-06-18 11:37:27 51°9.474 2°14.441 79.1 12.5 74 33.2
2007-06-18 11:38:27 51°9.537 2°14.757 75.2 12.6 72 32.5
2007-06-18 11:39:27 51°9.599 2°15.076 75.8 12.6 72 34
2007-06-18 11:40:27 51°9.66 2°15.394 76.4 12.6 73 34
2007-06-18 11:41:27 51°9.721 2°15.715 76.4 12.7 73 34.3
2007-06-18 11:42:27 51°9.782 2°16.037 76.1 12.8 73 34.3
2007-06-18 11:43:27 51°9.845 2°16.362 75.7 12.9 73 33
2007-06-18 11:44:27 51°9.905 2°16.687 76.3 12.7 75 29.7
2007-06-18 11:45:27 51°9.984 2°17 66.9 12.7 62 24.2
2007-06-18 11:46:27 51°10.075 2°17.302 66.7 12.5 65 18.3
2007-06-18 11:47:27 51°10.181 2°17.581 52.3 12.3 47 16.1
2007-06-18 11:48:27 51°10.335 2°17.79 39.8 12.1 37 19.7
2007-06-18 11:49:27 51°10.499 2°17.981 39 12.3 35 22.4
2007-06-18 11:50:27 51°10.666 2°18.167 38.7 12.3 35 24.2
2007-06-18 11:51:27 51°10.833 2°18.354 38.5 12.3 35 24
2007-06-18 11:52:27 51°11.001 2°18.543 39.2 12.4 36 25.7
2007-06-18 11:53:27 51°11.167 2°18.734 39.1 12.4 36 25.1
2007-06-18 11:54:27 51°11.334 2°18.925 39.1 12.4 36 27.9
2007-06-18 11:55:27 51°11.5 2°19.118 38.6 12.5 36 24.8
2007-06-18 11:56:27 51°11.666 2°19.316 39.2 12.5 37 29.2
2007-06-18 11:57:27 51°11.832 2°19.515 39.4 12.5 37 29.9
2007-06-18 11:58:27 51°11.997 2°19.714 39.1 12.4 37 30.6
2007-06-18 11:59:27 51°12.162 2°19.911 38.9 12.5 37 32.5
2007-06-18 12:00:27 51°12.328 2°20.109 38.7 12.4 37 33.9
2007-06-18 12:01:27 51°12.497 2°20.297 35 12.4 33 34.6
2007-06-18 12:02:27 51°12.672 2°20.477 35.2 12.6 32 34.1
2007-06-18 12:03:27 51°12.847 2°20.657 35.4 12.5 33 35
2007-06-18 12:04:26 51°13.019 2°20.836 35.2 12.7 33 34.9
2007-06-18 12:05:26 51°13.196 2°21.018 34.9 12.7 33 35.1
2007-06-18 12:06:26 51°13.373 2°21.2 35.1 12.7 33 35.5
2007-06-18 12:07:26 51°13.55 2°21.384 34.8 12.8 33 35
2007-06-18 12:08:26 51°13.727 2°21.57 35.4 12.8 34 35.1
2007-06-18 12:09:26 51°13.906 2°21.756 35.5 12.9 33 35.1
2007-06-18 12:10:26 51°14.085 2°21.944 35.1 12.9 33 35.3
2007-06-18 12:11:26 51°14.263 2°22.132 35.5 12.8 34 35.2
2007-06-18 12:12:26 51°14.441 2°22.32 35.3 12.8 34 33.7
2007-06-18 12:13:26 51°14.62 2°22.507 35.5 12.9 33 34
2007-06-18 12:14:26 51°14.798 2°22.695 35.2 12.8 33 35.2
2007-06-18 12:15:26 51°14.976 2°22.883 35.5 12.9 34 34.6
2007-06-18 12:16:26 51°15.154 2°23.07 35.3 12.8 33 34.2
2007-06-18 12:17:26 51°15.331 2°23.255 35 12.8 34 34.4
2007-06-18 12:18:26 51°15.508 2°23.441 34.8 12.7 34 34.1
2007-06-18 12:19:26 51°15.686 2°23.626 35.2 12.8 33 34.8
2007-06-18 12:20:26 51°15.865 2°23.81 34.8 12.8 33 35.3
2007-06-18 12:21:26 51°16.044 2°23.999 36.2 12.9 34 35.1
2007-06-18 12:22:26 51°16.224 2°24.186 35.4 12.9 32 35.8
2007-06-18 12:23:26 51°16.404 2°24.373 35.6 12.9 33 36.9
2007-06-18 12:24:26 51°16.586 2°24.558 34.8 13 33 37.5
2007-06-18 12:25:27 51°16.772 2°24.747 35.1 13.1 32 37.9
2007-06-18 12:26:26 51°16.942 2°24.954 44.3 13.1 42 36.7
2007-06-18 12:27:26 51°17.107 2°25.184 44.2 13.3 41 34.6
2007-06-18 12:28:26 51°17.274 2°25.415 43.6 13.3 41 35.3
2007-06-18 12:29:26 51°17.442 2°25.646 43.5 13.3 41 34.1
2007-06-18 12:30:26 51°17.617 2°25.865 40.9 13.3 38 33.7
2007-06-18 12:31:26 51°17.79 2°26.084 41.3 13.3 38 34
2007-06-18 12:32:26 51°17.964 2°26.303 41.2 13.3 37 34.1
2007-06-18 12:33:26 51°18.14 2°26.52 41.3 13.3 38 33.4
2007-06-18 12:34:27 51°18.318 2°26.744 41.9 13.4 38 34.1
2007-06-18 12:35:26 51°18.493 2°26.96 41.1 13.5 38 34.1
2007-06-18 12:36:26 51°18.672 2°27.177 41.3 13.6 36 34.7
2007-06-18 12:37:27 51°18.854 2°27.399 41.8 13.6 37 34.5
2007-06-18 12:38:26 51°19.03 2°27.615 41.3 13.6 37 34.3
2007-06-18 12:39:27 51°19.213 2°27.838 41.3 13.7 38 34.5
2007-06-18 12:40:27 51°19.394 2°28.059 41.3 13.6 37 34
2007-06-18 12:41:26 51°19.57 2°28.277 41.1 13.6 37 33
2007-06-18 12:42:26 51°19.75 2°28.497 41.6 13.6 38 31.7
2007-06-18 12:43:26 51°19.93 2°28.715 40.8 13.5 38 32.4
2007-06-18 12:44:26 51°20.109 2°28.938 41.3 13.7 39 30.9
2007-06-18 12:45:26 51°20.223 2°29.244 76 13.6 75 31.7
2007-06-18 12:46:26 51°20.238 2°29.601 91.7 13.6 86 32.3
2007-06-18 12:47:26 51°20.257 2°29.963 91 13.7 86 27.8
2007-06-18 12:48:26 51°20.268 2°30.331 91.2 14.1 88 14.2
2007-06-18 12:49:26 51°20.281 2°30.708 90.4 14.3 87 15.2
2007-06-18 12:50:27 51°20.293 2°31.093 91.4 14.2 87 19.9
2007-06-18 12:51:27 51°20.306 2°31.464 90.7 13.9 87 24.8
2007-06-18 12:52:27 51°20.324 2°31.833 87.6 13.8 85 31.3
2007-06-18 12:53:27 51°20.358 2°32.189 79.3 13.5 75 32.2
2007-06-18 12:54:27 51°20.417 2°32.535 77.9 13.6 74 32.4
2007-06-18 12:55:27 51°20.476 2°32.884 79 13.6 75 32.3
2007-06-18 12:56:27 51°20.535 2°33.233 79 13.6 75 33.1
2007-06-18 12:57:27 51°20.593 2°33.585 79.4 13.7 76 32.5
2007-06-18 12:58:27 51°20.651 2°33.94 79.4 13.9 76 32.9
2007-06-18 12:59:27 51°20.718 2°34.291 74 13.7 70 33.4
2007-06-18 13:00:27 51°20.846 2°34.583 47.6 13.6 44 33.5
2007-06-18 13:01:27 51°21.015 2°34.825 44.6 13.7 42 33.2
2007-06-18 13:02:27 51°21.183 2°35.072 45.6 13.8 43 33.7
2007-06-18 13:03:27 51°21.35 2°35.327 46.4 13.9 44 36.4
2007-06-18 13:04:27 51°21.517 2°35.583 46.7 13.9 44 33
2007-06-18 13:05:27 51°21.686 2°35.833 40.7 13.7 36 32.8
2007-06-18 13:06:27 51°21.89 2°35.994 25.1 13.7 24 33.7
2007-06-18 13:07:27 51°22.093 2°36.162 30.4 13.7 30 32.5
2007-06-18 13:08:27 51°22.293 2°36.338 30.3 13.6 28 32.4
2007-06-18 13:09:27 51°22.488 2°36.527 34.5 13.8 33 30.8
2007-06-18 13:10:27 51°22.668 2°36.753 42.8 13.8 43 30.5
2007-06-18 13:11:27 51°22.812 2°37.038 58.4 13.8 56 30.3
2007-06-18 13:12:27 51°22.936 2°37.349 59.5 13.9 57 25.8
2007-06-18 13:13:27 51°23.063 2°37.658 58.7 14 57 30.4
2007-06-18 13:14:27 51°23.192 2°37.966 58.7 13.9 56 29
2007-06-18 13:15:27 51°23.321 2°38.274 59.1 13.9 56 30.5
2007-06-18 13:16:27 51°23.454 2°38.58 58.6 14.1 55 29.6
2007-06-18 13:17:27 51°23.589 2°38.886 58.6 14.2 55 28.7
2007-06-18 13:18:27 51°23.724 2°39.193 58.2 14 55 29.3
2007-06-18 13:19:27 51°23.847 2°39.513 63 14.1 60 28.3
2007-06-18 13:20:27 51°23.947 2°39.851 71.9 14.1 67 29
2007-06-18 13:21:27 51°24.048 2°40.187 67.5 14 64 28.7
2007-06-18 13:22:27 51°24.152 2°40.52 67.8 14 63 29.2
2007-06-18 13:23:27 51°24.257 2°40.852 68 14 63 27.9
2007-06-18 13:24:27 51°24.362 2°41.185 67.5 14 63 28.6
2007-06-18 13:25:27 51°24.468 2°41.516 67.1 14 62 26.3
2007-06-18 13:26:27 51°24.574 2°41.849 67.7 14 63 28
2007-06-18 13:27:27 51°24.678 2°42.182 67.3 13.9 63 21.6
2007-06-18 13:28:27 51°24.782 2°42.519 67.3 14.1 64 26.8
2007-06-18 13:29:27 51°24.886 2°42.857 67 14.2 64 25.7
2007-06-18 13:30:27 51°24.99 2°43.197 67.7 14.2 63 24.7
2007-06-18 13:31:27 51°25.095 2°43.537 67.1 14.3 64 24.9
2007-06-18 13:32:27 51°25.198 2°43.878 67.1 14.3 65 24.7
2007-06-18 13:33:27 51°25.289 2°44.226 74.2 14.1 71 26.4
2007-06-18 13:34:27 51°25.365 2°44.58 74.7 14.1 72 26.7
2007-06-18 13:35:27 51°25.444 2°44.931 74.7 14 70 26.6
2007-06-18 13:36:27 51°25.523 2°45.285 75.2 14.1 70 25.6
2007-06-18 13:37:27 51°25.605 2°45.636 73.9 14.1 69 26.7
2007-06-18 13:38:27 51°25.687 2°45.987 74.6 14.1 69 25.7
2007-06-18 13:39:27 51°25.77 2°46.338 74 14.1 69 27.1
2007-06-18 13:40:27 51°25.853 2°46.692 74.5 14.2 70 24.7
2007-06-18 13:41:27 51°25.934 2°47.047 74.3 14.3 69 25.2
2007-06-18 13:42:27 51°26.017 2°47.404 74.7 14.3 70 25.3
2007-06-18 13:43:27 51°26.098 2°47.764 74 14.4 71 25.2
2007-06-18 13:44:27 51°26.107 2°48.134 103.7 13.8 101 25.2
2007-06-18 13:45:27 51°25.992 2°48.432 141.2 13.3 134 25.9
2007-06-18 13:46:27 51°25.833 2°48.658 147.6 12.6 138 26.2
2007-06-18 13:47:27 51°25.676 2°48.887 146.5 12.8 138 26.7
2007-06-18 13:48:27 51°25.521 2°49.125 144.2 12.8 136 26
2007-06-18 13:49:27 51°25.359 2°49.351 153 12.7 147 25.3
2007-06-18 13:50:27 51°25.172 2°49.499 165.9 12.4 158 24.8
2007-06-18 13:51:27 51°24.981 2°49.618 167.2 12.3 157 25.1
2007-06-18 13:52:27 51°24.79 2°49.743 166.1 12.5 158 25.1
2007-06-18 13:53:27 51°24.601 2°49.872 166.1 12.3 156 25.2
2007-06-18 13:54:27 51°24.411 2°50.001 166.5 12.3 156 25.1
2007-06-18 13:55:27 51°24.216 2°50.076 184.6 11.9 179 24.9
2007-06-18 13:56:27 51°24.021 2°50.057 191.3 11.7 188 24.5
2007-06-18 13:57:27 51°23.84 2°49.962 210.9 11.2 202 24.8
2007-06-18 13:58:27 51°23.657 2°49.866 204.2 11.7 196 25.3
2007-06-18 13:59:27 51°23.472 2°49.777 203.8 11.7 196 23
2007-06-18 14:00:27 51°23.286 2°49.691 202.5 11.6 195 21.8
2007-06-18 14:01:27 51°23.102 2°49.6 206.4 11.5 200 19.3
2007-06-18 14:02:27 51°22.924 2°49.492 207.4 11.6 200 16.8
2007-06-18 14:03:27 51°22.745 2°49.386 206.4 11.6 200 18.4
2007-06-18 14:04:27 51°22.578 2°49.248 214.3 11.1 213 18
2007-06-18 14:05:27 51°22.438 2°49.059 226.9 10.7 224 22.6
2007-06-18 14:06:27 51°22.314 2°48.855 230.3 10.7 228 22.8
2007-06-18 14:07:27 51°22.191 2°48.65 229.8 10.7 225 26.2
2007-06-18 14:08:27 51°22.049 2°48.482 213.3 10.8 203 26.3
2007-06-18 14:09:27 51°21.875 2°48.386 206.5 11.1 198 25.9
2007-06-18 14:10:27 51°21.698 2°48.292 206.6 11.2 198 26.2
2007-06-18 14:11:27 51°21.521 2°48.193 207.4 11.3 200 25.8
2007-06-18 14:12:27 51°21.345 2°48.093 207.1 11.3 200 25.1
2007-06-18 14:13:27 51°21.168 2°47.993 206.6 11.3 198 23.8
2007-06-18 14:14:27 51°20.989 2°47.893 207.1 11.5 200 21
2007-06-18 14:15:27 51°20.81 2°47.79 207.6 11.4 201 21.3
2007-06-18 14:16:27 51°20.631 2°47.688 207.1 11.5 199 22.1
2007-06-18 14:17:27 51°20.45 2°47.585 207.5 11.5 198 21
2007-06-18 14:18:27 51°20.27 2°47.482 207 11.6 199 22
2007-06-18 14:19:27 51°20.091 2°47.379 207.5 11.2 200 23.2
2007-06-18 14:20:27 51°19.914 2°47.278 207.1 11.2 201 23.9
2007-06-18 14:21:27 51°19.737 2°47.171 207.4 11.4 199 24
2007-06-18 14:22:27 51°19.559 2°47.065 206.8 11.3 201 24.4
2007-06-18 14:23:27 51°19.382 2°46.958 207.9 11.3 202 24.1
2007-06-18 14:24:27 51°19.205 2°46.85 207 11.5 199 24
2007-06-18 14:25:27 51°19.028 2°46.74 206.9 11.4 203 23.9
2007-06-18 14:26:27 51°18.849 2°46.636 206.5 11.4 201 23.4
2007-06-18 14:27:27 51°18.672 2°46.528 207.6 11.4 200 22.7
2007-06-18 14:28:27 51°18.495 2°46.423 206.7 11.4 201 21.2
2007-06-18 14:29:27 51°18.318 2°46.319 207.4 11.3 200 21.6
2007-06-18 14:30:27 51°18.142 2°46.214 207.2 11.3 201 21.2
2007-06-18 14:31:27 51°17.965 2°46.11 207.5 11.3 199 18.9
2007-06-18 14:32:27 51°17.78 2°46.051 197.2 11.5 188 19.4
2007-06-18 14:33:27 51°17.589 2°46.002 196.8 11.5 188 17.4
2007-06-18 14:34:27 51°17.399 2°45.951 197.4 11.6 189 17
2007-06-18 14:35:27 51°17.21 2°45.897 196.8 11.6 191 17
2007-06-18 14:36:27 51°17.02 2°45.842 197.4 11.7 191 15.5
2007-06-18 14:37:27 51°16.826 2°45.842 182.4 12 173 14.5
2007-06-18 14:38:27 51°16.629 2°45.876 182.4 11.7 172 13.3
2007-06-18 14:39:27 51°16.457 2°46.053 147.7 13.1 136 13.1
2007-06-18 14:40:27 51°16.299 2°46.29 146.3 13.2 138 12.8
2007-06-18 14:41:27 51°16.128 2°46.501 156.8 13.1 149 15.3
2007-06-18 14:42:27 51°15.943 2°46.681 158.6 13.1 149 18.9
2007-06-18 14:43:27 51°15.761 2°46.867 158.7 12.9 148 19.6
2007-06-18 14:44:27 51°15.575 2°47.046 159.2 13.1 147 17.6
2007-06-18 14:45:27 51°15.39 2°47.22 159.8 12.9 150 14.7
2007-06-18 14:46:27 51°15.216 2°47.418 144.8 13.3 130 12.5
2007-06-18 14:47:27 51°15.142 2°47.753 106.4 13.9 91 12.9
2007-06-18 14:48:27 51°15.157 2°48.128 89.7 14.3 84 15.2
2007-06-18 14:49:27 51°15.179 2°48.509 90.3 14.4 85 15.9
2007-06-18 14:50:27 51°15.202 2°48.89 90.9 14.5 84 15.8
2007-06-18 14:51:27 51°15.225 2°49.271 89.5 14.4 84 15.7
2007-06-18 14:52:27 51°15.247 2°49.651 90.9 14.4 84 15.7
2007-06-18 14:53:27 51°15.269 2°50.035 91.4 14.5 86 15.6
2007-06-18 14:54:27 51°15.292 2°50.42 91.5 14.7 84 15.5
2007-06-18 14:55:27 51°15.312 2°50.805 91.7 14.6 86 15.4
2007-06-18 14:56:27 51°15.326 2°51.19 96.1 14.5 89 15.2
2007-06-18 14:57:27 51°15.319 2°51.575 103 14.5 96 15.1
2007-06-18 14:58:27 51°15.23 2°51.915 126.2 13.9 118 14.6
2007-06-18 14:59:27 51°15.127 2°52.243 125.5 13.8 116 14.3
2007-06-18 15:00:27 51°15.024 2°52.566 124.8 13.7 117 13.6
2007-06-18 15:01:27 51°14.923 2°52.893 125 13.7 118 13.8
2007-06-18 15:02:27 51°14.831 2°53.229 121.6 13.9 113 13.8
2007-06-18 15:03:27 51°14.74 2°53.56 119.3 13.6 111 13.6
2007-06-18 15:04:27 51°14.657 2°53.898 118.7 13.9 110 14.2
2007-06-18 15:05:27 51°14.578 2°54.245 119.1 13.8 110 14.1
2007-06-18 15:06:27 51°14.492 2°54.582 122.4 13.5 111 13.7
2007-06-18 15:07:27 51°14.404 2°54.909 120.4 13.5 114 13.8
2007-06-18 15:08:27 51°14.296 2°55.193 129.8 10.8 129 13.8
2007-06-18 15:09:27 51°14.199 2°55.354 147.1 6.6 144 14
2007-06-18 15:10:27 51°14.117 2°55.422 159.3 5.1 155 14
2007-06-18 15:11:27 51°14.033 2°55.485 158.4 6.9 155 -999
2007-06-18 15:12:27 51°13.922 2°55.567 158.1 7.2 155 14.1
2007-06-18 15:13:27 51°13.814 2°55.648 156.2 7 152 14.1
2007-06-18 15:14:27 51°13.727 2°55.758 137.1 6 133 15
2007-06-18 15:15:27 51°13.675 2°55.866 129.8 4.6 126 13.7
2007-06-18 15:16:27 51°13.634 2°55.956 129.6 3.8 126 13.8
2007-06-18 15:17:27 51°13.608 2°56.034 113.1 2.9 112 14
2007-06-18 15:18:27 51°13.598 2°56.079 104.8 1 104 -999
2007-06-18 15:19:27 51°13.597 2°56.09 106.4 0.2 105 -999